createdAt,value
2019-04-23T00:00:07.641Z,0.00
2019-04-23T00:01:16.512Z,0.00
2019-04-23T00:02:04.053Z,0.00
2019-04-23T00:03:08.564Z,0.00
2019-04-23T00:04:05.522Z,0.00
2019-04-23T00:05:02.112Z,0.00
2019-04-23T00:06:15.155Z,0.00
2019-04-23T00:07:15.537Z,0.00
2019-04-23T00:08:13.195Z,0.00
2019-04-23T00:09:15.744Z,0.00
2019-04-23T00:12:10.821Z,0.00
2019-04-23T00:13:05.434Z,0.00
2019-04-23T00:14:11.550Z,0.00
2019-04-23T00:15:13.471Z,0.00
2019-04-23T00:16:24.849Z,0.00
2019-04-23T00:17:11.497Z,0.00
2019-04-23T00:18:12.449Z,0.00
2019-04-23T00:19:03.211Z,0.00
2019-04-23T00:20:09.830Z,0.00
2019-04-23T00:21:13.819Z,0.00
2019-04-23T00:22:09.140Z,0.00
2019-04-23T00:24:28.443Z,0.00
2019-04-23T00:26:10.624Z,0.00
2019-04-23T00:27:15.665Z,0.00
2019-04-23T00:28:17.412Z,0.00
2019-04-23T00:29:13.469Z,0.00
2019-04-23T00:30:10.466Z,0.00
2019-04-23T00:31:15.238Z,0.00
2019-04-23T00:32:12.053Z,0.00
2019-04-23T00:33:12.108Z,0.00
2019-04-23T00:34:09.243Z,0.00
2019-04-23T00:35:05.907Z,0.00
2019-04-23T00:36:10.783Z,0.00
2019-04-23T00:37:12.989Z,0.00
2019-04-23T00:38:11.897Z,0.00
2019-04-23T00:39:08.181Z,0.00
2019-04-23T00:40:03.062Z,0.00
2019-04-23T00:41:09.502Z,0.00
2019-04-23T00:42:10.379Z,0.00
2019-04-23T00:43:13.067Z,0.00
2019-04-23T00:44:15.000Z,0.00
2019-04-23T00:45:03.308Z,0.00
2019-04-23T00:46:11.475Z,0.00
2019-04-23T00:47:14.281Z,0.00
2019-04-23T00:48:15.141Z,0.00
2019-04-23T00:49:13.642Z,0.00
2019-04-23T00:50:12.750Z,0.00
2019-04-23T00:51:02.173Z,0.00
2019-04-23T00:52:14.519Z,0.00
2019-04-23T00:53:04.582Z,0.00
2019-04-23T00:54:14.424Z,0.00
2019-04-23T00:55:10.615Z,0.00
2019-04-23T00:56:29.578Z,0.00
2019-04-23T00:57:17.527Z,0.00
2019-04-23T00:58:12.503Z,0.00
2019-04-23T00:59:08.348Z,0.00
2019-04-23T01:00:23.855Z,0.00
2019-04-23T01:01:04.405Z,0.00
2019-04-23T01:02:08.878Z,0.00
2019-04-23T01:03:21.780Z,0.00
2019-04-23T01:04:04.796Z,0.00
2019-04-23T01:05:10.341Z,0.00
2019-04-23T01:06:09.741Z,0.00
2019-04-23T01:07:04.429Z,0.00
2019-04-23T01:08:12.826Z,0.00
2019-04-23T01:09:22.515Z,0.00
2019-04-23T01:10:11.603Z,0.00
2019-04-23T01:12:09.328Z,0.00
2019-04-23T01:13:08.862Z,0.00
2019-04-23T01:14:08.155Z,0.00
2019-04-23T01:15:15.715Z,0.00
2019-04-23T01:16:07.213Z,0.00
2019-04-23T01:17:08.423Z,0.00
2019-04-23T01:18:14.161Z,0.00
2019-04-23T01:18:58.416Z,0.00
2019-04-23T01:20:10.903Z,0.00
2019-04-23T01:20:54.445Z,0.00
2019-04-23T01:21:47.368Z,0.00
2019-04-23T01:22:46.330Z,0.00
2019-04-23T01:23:53.916Z,0.00
2019-04-23T01:24:47.950Z,0.00
2019-04-23T01:25:54.319Z,0.00
2019-04-23T01:27:23.765Z,0.00
2019-04-23T01:28:09.400Z,0.00
2019-04-23T01:29:13.577Z,0.00
2019-04-23T01:31:08.919Z,0.00
2019-04-23T01:32:08.568Z,0.00
2019-04-23T01:33:11.012Z,0.00
2019-04-23T01:34:16.727Z,0.00
2019-04-23T01:37:16.010Z,0.00
2019-04-23T01:38:11.924Z,0.00
2019-04-23T01:39:14.458Z,0.00
2019-04-23T01:40:13.569Z,0.00
2019-04-23T01:41:13.390Z,0.00
2019-04-23T01:42:23.986Z,0.00
2019-04-23T01:43:09.224Z,0.00
2019-04-23T01:44:14.369Z,0.00
2019-04-23T01:45:24.248Z,0.00
2019-04-23T01:46:32.347Z,0.00
2019-04-23T01:47:15.125Z,0.00
2019-04-23T01:48:11.150Z,0.00
2019-04-23T01:49:14.104Z,0.00
2019-04-23T01:50:17.331Z,0.00
2019-04-23T01:51:12.720Z,0.00
2019-04-23T01:52:18.007Z,0.00
2019-04-23T01:53:16.764Z,0.00
2019-04-23T01:54:10.229Z,0.00
2019-04-23T01:55:17.200Z,0.00
2019-04-23T01:56:13.960Z,0.00
2019-04-23T01:57:18.056Z,0.00
2019-04-23T01:59:12.372Z,0.00
2019-04-23T02:00:16.092Z,0.00
2019-04-23T02:01:12.909Z,0.00
2019-04-23T02:02:17.066Z,0.00
2019-04-23T02:03:30.792Z,0.00
2019-04-23T02:04:16.947Z,0.00
2019-04-23T02:05:19.354Z,0.00
2019-04-23T02:06:15.117Z,0.00
2019-04-23T02:07:11.297Z,0.00
2019-04-23T02:08:11.120Z,0.00
2019-04-23T02:09:13.883Z,0.00
2019-04-23T02:10:26.599Z,0.00
2019-04-23T02:11:10.211Z,0.00
2019-04-23T02:12:11.131Z,0.00
2019-04-23T02:13:16.597Z,0.00
2019-04-23T02:15:18.679Z,0.00
2019-04-23T02:16:11.800Z,0.00
2019-04-23T02:17:34.051Z,0.00
2019-04-23T02:18:11.495Z,0.00
2019-04-23T02:19:18.204Z,0.00
2019-04-23T02:20:15.934Z,0.00
2019-04-23T02:21:10.233Z,0.00
2019-04-23T02:22:13.259Z,0.00
2019-04-23T02:24:12.439Z,0.00
2019-04-23T02:25:16.238Z,0.00
2019-04-23T02:26:09.529Z,0.00
2019-04-23T02:27:13.317Z,0.00
2019-04-23T02:28:21.893Z,0.00
2019-04-23T02:29:26.597Z,0.00
2019-04-23T02:30:35.213Z,0.00
2019-04-23T02:32:08.895Z,0.00
2019-04-23T02:33:29.459Z,0.00
2019-04-23T02:34:42.935Z,0.00
2019-04-23T02:35:37.985Z,0.00
2019-04-23T02:36:31.435Z,0.00
2019-04-23T02:37:24.411Z,0.00
2019-04-23T02:38:18.807Z,0.00
2019-04-23T02:39:13.010Z,0.00
2019-04-23T02:42:29.624Z,0.00
2019-04-23T02:44:21.787Z,0.00
2019-04-23T02:45:16.017Z,0.00
2019-04-23T02:46:09.815Z,0.00
2019-04-23T02:47:23.154Z,0.00
2019-04-23T02:50:33.020Z,0.00
2019-04-23T02:51:17.508Z,0.00
2019-04-23T02:52:24.910Z,0.00
2019-04-23T02:53:30.667Z,0.00
2019-04-23T02:54:26.783Z,0.00
2019-04-23T02:55:18.249Z,0.00
2019-04-23T02:57:24.845Z,0.00
2019-04-23T03:03:25.836Z,0.00
2019-04-23T03:04:33.978Z,0.00
2019-04-23T03:06:14.498Z,0.00
2019-04-23T03:08:16.746Z,0.00
2019-04-23T03:09:20.973Z,0.00
2019-04-23T03:10:18.426Z,0.00
2019-04-23T03:11:26.716Z,0.00
2019-04-23T03:13:29.342Z,0.00
2019-04-23T03:17:10.772Z,0.00
2019-04-23T03:18:33.223Z,4.00
2019-04-23T03:19:15.183Z,0.00
2019-04-23T03:20:27.544Z,4.00
2019-04-23T03:22:15.690Z,8.00
2019-04-23T03:23:27.484Z,8.00
2019-04-23T03:24:36.436Z,8.00
2019-04-23T03:25:23.514Z,12.00
2019-04-23T03:26:25.067Z,8.00
2019-04-23T03:27:23.393Z,12.00
2019-04-23T03:28:25.292Z,16.00
2019-04-23T03:29:21.904Z,16.00
2019-04-23T03:34:20.827Z,28.00
2019-04-23T03:35:10.541Z,36.00
2019-04-23T03:36:14.028Z,44.00
2019-04-23T03:37:23.116Z,52.00
2019-04-23T03:38:35.682Z,60.00
2019-04-23T03:39:30.083Z,64.00
2019-04-23T03:42:33.135Z,100.00
2019-04-23T03:43:25.503Z,116.00
2019-04-23T03:44:22.838Z,128.00
2019-04-23T03:46:24.429Z,160.00
2019-04-23T03:47:29.790Z,184.00
2019-04-23T03:49:16.881Z,220.00
2019-04-23T03:51:21.649Z,264.00
2019-04-23T03:52:27.679Z,292.00
2019-04-23T03:53:24.431Z,316.00
2019-04-23T03:55:19.439Z,380.00
2019-04-23T03:56:25.518Z,408.00
2019-04-23T03:57:18.466Z,440.00
2019-04-23T03:58:21.153Z,468.00
2019-04-23T03:59:19.996Z,512.00
2019-04-23T04:00:31.089Z,548.00
2019-04-23T04:01:23.637Z,588.00
2019-04-23T04:05:26.501Z,752.00
2019-04-23T04:07:36.558Z,844.00
2019-04-23T04:08:20.373Z,896.00
2019-04-23T04:09:25.978Z,948.00
2019-04-23T04:10:41.295Z,988.00
2019-04-23T04:11:14.337Z,1040.00
2019-04-23T04:12:21.227Z,1076.00
2019-04-23T04:13:22.865Z,1136.00
2019-04-23T04:14:36.791Z,1180.00
2019-04-23T04:15:33.248Z,1236.00
2019-04-23T04:17:19.641Z,1412.00
2019-04-23T04:19:24.573Z,1460.00
2019-04-23T04:20:26.489Z,1516.00
2019-04-23T04:23:23.596Z,1680.00
2019-04-23T04:25:37.095Z,1792.00
2019-04-23T04:26:22.682Z,1856.00
2019-04-23T04:27:19.421Z,1924.00
2019-04-23T04:29:20.998Z,2020.00
2019-04-23T04:30:20.834Z,2056.00
2019-04-23T04:31:15.738Z,2168.00
2019-04-23T04:32:11.911Z,2248.00
2019-04-23T04:33:34.056Z,2332.00
2019-04-23T04:34:55.545Z,2452.00
2019-04-23T04:36:22.538Z,2496.00
2019-04-23T04:37:35.596Z,2612.00
2019-04-23T04:38:34.901Z,2704.00
2019-04-23T04:39:15.086Z,2696.00
2019-04-23T04:41:28.316Z,2848.00
2019-04-23T04:44:37.794Z,3124.00
2019-04-23T04:46:34.833Z,3260.00
2019-04-23T04:47:33.866Z,3208.00
2019-04-23T04:48:07.285Z,3300.00
2019-04-23T04:51:22.105Z,3288.00
2019-04-23T04:54:21.560Z,3444.00
2019-04-23T04:55:23.570Z,3452.00
2019-04-23T04:57:24.142Z,3564.00
2019-04-23T04:58:30.834Z,3656.00
2019-04-23T04:59:13.844Z,3760.00
2019-04-23T05:00:30.254Z,3688.00
2019-04-23T05:02:39.617Z,3788.00
2019-04-23T05:04:19.933Z,3840.00
2019-04-23T05:05:48.467Z,3920.00
2019-04-23T05:07:26.035Z,4016.00
2019-04-23T05:11:21.520Z,4492.00
2019-04-23T05:13:34.641Z,4308.00
2019-04-23T05:14:13.333Z,4392.00
2019-04-23T05:15:09.112Z,4448.00
2019-04-23T05:16:15.942Z,4420.00
2019-04-23T05:17:18.269Z,4512.00
2019-04-23T05:19:25.063Z,4580.00
2019-04-23T05:20:12.892Z,4648.00
2019-04-23T05:21:12.199Z,4704.00
2019-04-23T05:22:33.780Z,4640.00
2019-04-23T05:24:08.585Z,4744.00
2019-04-23T05:25:04.137Z,4840.00
2019-04-23T05:26:13.568Z,5004.00
2019-04-23T05:27:34.555Z,5060.00
2019-04-23T05:28:14.427Z,5068.00
2019-04-23T05:30:15.671Z,5400.00
2019-04-23T05:31:17.240Z,7044.00
2019-04-23T05:32:27.223Z,6680.00
2019-04-23T05:33:17.114Z,8812.00
2019-04-23T05:34:22.641Z,11112.00
2019-04-23T05:35:16.894Z,10176.00
2019-04-23T05:37:10.540Z,13920.00
2019-04-23T05:38:29.234Z,15232.00
2019-04-23T05:39:17.582Z,15424.00
2019-04-23T05:40:24.132Z,15968.00
2019-04-23T05:41:16.554Z,16832.00
2019-04-23T05:42:10.747Z,16096.00
2019-04-23T05:43:15.810Z,17568.00
2019-04-23T05:44:15.403Z,18912.00
2019-04-23T05:45:08.333Z,17696.00
2019-04-23T05:46:14.247Z,17088.00
2019-04-23T05:47:17.124Z,17856.00
2019-04-23T05:48:13.262Z,18624.00
2019-04-23T05:49:14.291Z,19200.00
2019-04-23T05:50:18.704Z,19616.00
2019-04-23T05:51:10.968Z,19744.00
2019-04-23T05:52:09.784Z,20800.00
2019-04-23T05:53:11.453Z,21856.00
2019-04-23T05:54:12.932Z,21760.00
2019-04-23T05:55:07.614Z,21280.00
2019-04-23T05:56:06.484Z,21472.00
2019-04-23T05:57:09.963Z,23232.00
2019-04-23T05:58:18.526Z,23136.00
2019-04-23T05:59:14.780Z,22304.00
2019-04-23T06:00:12.069Z,23200.00
2019-04-23T06:01:27.918Z,23520.00
2019-04-23T06:02:13.310Z,24288.00
2019-04-23T06:03:14.738Z,25632.00
2019-04-23T06:05:13.093Z,26624.00
2019-04-23T06:06:10.542Z,27840.00
2019-04-23T06:07:23.766Z,27392.00
2019-04-23T06:08:14.706Z,28384.00
2019-04-23T06:11:08.663Z,25504.00
2019-04-23T06:12:09.421Z,27296.00
2019-04-23T06:13:12.334Z,30944.00
2019-04-23T06:14:17.388Z,30528.00
2019-04-23T06:15:11.544Z,28352.00
2019-04-23T06:16:16.540Z,29056.00
2019-04-23T06:17:17.804Z,29792.00
2019-04-23T06:19:14.176Z,33248.00
2019-04-23T06:20:09.261Z,33984.00
2019-04-23T06:21:10.045Z,33952.00
2019-04-23T06:22:29.013Z,34176.00
2019-04-23T06:23:20.246Z,32448.00
2019-04-23T06:24:16.270Z,30336.00
2019-04-23T06:25:22.071Z,30816.00
2019-04-23T06:26:24.317Z,32800.00
2019-04-23T06:27:13.573Z,34592.00
2019-04-23T06:29:15.506Z,38048.00
2019-04-23T06:30:08.406Z,36992.00
2019-04-23T06:31:06.311Z,34976.00
2019-04-23T06:32:06.495Z,35264.00
2019-04-23T06:33:14.563Z,37888.00
2019-04-23T06:34:24.753Z,38880.00
2019-04-23T06:35:09.025Z,37856.00
2019-04-23T06:36:17.065Z,38112.00
2019-04-23T06:37:09.238Z,37536.00
2019-04-23T06:39:12.964Z,34816.00
2019-04-23T06:40:08.389Z,36576.00
2019-04-23T06:41:18.623Z,36064.00
2019-04-23T06:42:08.425Z,36480.00
2019-04-23T06:43:11.295Z,40064.00
2019-04-23T06:44:12.984Z,44096.00
2019-04-23T06:45:08.153Z,43328.00
2019-04-23T06:46:11.957Z,41248.00
2019-04-23T06:47:06.732Z,42496.00
2019-04-23T06:48:20.326Z,46560.00
2019-04-23T06:49:09.187Z,48032.00
2019-04-23T06:50:08.537Z,45568.00
2019-04-23T06:51:11.219Z,44928.00
2019-04-23T06:53:19.720Z,43616.00
2019-04-23T06:54:13.445Z,42560.00
2019-04-23T06:55:09.112Z,43232.00
2019-04-23T06:56:15.981Z,43168.00
2019-04-23T06:57:14.134Z,43776.00
2019-04-23T06:58:15.773Z,44704.00
2019-04-23T06:59:13.011Z,46368.00
2019-04-23T07:00:07.921Z,46464.00
2019-04-23T07:01:08.279Z,46080.00
2019-04-23T07:02:11.773Z,43584.00
2019-04-23T07:03:14.827Z,42816.00
2019-04-23T07:04:15.137Z,46016.00
2019-04-23T07:05:10.448Z,49856.00
2019-04-23T07:07:30.946Z,51840.00
2019-04-23T07:08:15.204Z,49120.00
2019-04-23T07:09:10.686Z,45344.00
2019-04-23T07:10:07.325Z,42432.00
2019-04-23T07:11:17.095Z,44224.00
2019-04-23T07:12:08.527Z,48192.00
2019-04-23T07:13:10.901Z,50080.00
2019-04-23T07:14:28.769Z,46880.00
2019-04-23T07:15:33.845Z,42720.00
2019-04-23T07:16:09.221Z,41856.00
2019-04-23T07:17:18.252Z,44800.00
2019-04-23T07:18:08.730Z,51040.00
2019-04-23T07:19:09.524Z,56160.00
2019-04-23T07:20:07.148Z,60288.00
2019-04-23T07:21:16.955Z,61568.00
2019-04-23T07:22:12.902Z,57984.00
2019-04-23T07:23:14.155Z,51776.00
2019-04-23T07:24:08.595Z,47264.00
2019-04-23T07:25:08.332Z,46816.00
2019-04-23T07:26:23.259Z,49568.00
2019-04-23T07:27:11.850Z,55104.00
2019-04-23T07:28:13.199Z,57440.00
2019-04-23T07:29:08.507Z,56640.00
2019-04-23T07:30:23.726Z,53376.00
2019-04-23T07:31:19.122Z,51264.00
2019-04-23T07:32:05.405Z,52832.00
2019-04-23T07:33:11.842Z,56992.00
2019-04-23T07:34:10.288Z,61728.00
2019-04-23T07:36:08.548Z,59744.00
2019-04-23T07:37:09.094Z,55840.00
2019-04-23T07:38:14.519Z,53216.00
2019-04-23T07:40:27.683Z,61216.00
2019-04-23T07:41:18.577Z,65504.00
2019-04-23T07:42:16.856Z,66336.00
2019-04-23T07:43:08.937Z,64512.00
2019-04-23T07:44:12.775Z,61952.00
2019-04-23T07:45:10.053Z,60928.00
2019-04-23T07:46:17.125Z,60640.00
2019-04-23T07:47:16.182Z,59136.00
2019-04-23T07:48:16.614Z,56064.00
2019-04-23T07:49:10.371Z,55072.00
2019-04-23T07:50:27.432Z,58016.00
2019-04-23T07:51:06.200Z,63936.00
2019-04-23T07:52:27.647Z,66976.00
2019-04-23T07:53:13.270Z,65216.00
2019-04-23T07:55:21.546Z,67872.00
2019-04-23T07:56:07.356Z,71808.00
2019-04-23T07:57:17.186Z,72064.00
2019-04-23T07:58:14.339Z,68768.00
2019-04-23T07:59:12.360Z,64224.00
2019-04-23T08:00:19.050Z,60384.00
2019-04-23T08:01:04.931Z,60448.00
2019-04-23T08:02:14.189Z,64544.00
2019-04-23T08:03:18.675Z,71104.00
2019-04-23T08:04:10.592Z,76704.00
2019-04-23T08:05:15.534Z,80992.00
2019-04-23T08:06:05.909Z,79808.00
2019-04-23T08:07:07.054Z,75360.00
2019-04-23T08:08:07.487Z,70784.00
2019-04-23T08:09:08.558Z,69792.00
2019-04-23T08:10:14.155Z,73952.00
2019-04-23T08:12:13.907Z,79776.00
2019-04-23T08:14:08.140Z,66784.00
2019-04-23T08:15:08.844Z,74816.00
2019-04-23T08:16:19.941Z,60608.00
2019-04-23T08:17:12.328Z,72384.00
2019-04-23T08:18:13.563Z,67680.00
2019-04-23T08:20:07.880Z,73760.00
2019-04-23T08:21:10.356Z,67360.00
2019-04-23T08:22:21.758Z,72064.00
2019-04-23T08:23:12.536Z,76768.00
2019-04-23T08:24:21.708Z,68704.00
2019-04-23T08:25:29.934Z,36960.00
2019-04-23T08:26:27.603Z,20256.00
2019-04-23T08:27:11.130Z,10036.00
2019-04-23T08:28:13.386Z,34592.00
2019-04-23T08:29:12.298Z,129440.00
2019-04-23T08:30:04.503Z,8968.00
2019-04-23T08:31:07.762Z,13288.00
2019-04-23T08:33:17.562Z,14776.00
2019-04-23T08:34:20.472Z,11212.00
2019-04-23T08:35:10.583Z,37152.00
2019-04-23T08:36:15.154Z,22144.00
2019-04-23T08:37:09.221Z,9340.00
2019-04-23T08:39:10.311Z,31040.00
2019-04-23T08:40:11.943Z,37056.00
2019-04-23T08:41:22.874Z,40384.00
2019-04-23T08:42:23.291Z,44352.00
2019-04-23T08:43:17.422Z,76160.00
2019-04-23T08:44:15.653Z,34976.00
2019-04-23T08:45:22.711Z,50464.00
2019-04-23T08:46:07.889Z,14140.00
2019-04-23T08:48:14.337Z,20640.00
2019-04-23T08:49:20.031Z,19232.00
2019-04-23T08:50:04.355Z,6032.00
2019-04-23T08:51:23.776Z,21760.00
2019-04-23T08:52:12.190Z,9936.00
2019-04-23T08:53:26.375Z,22624.00
2019-04-23T08:54:21.944Z,8800.00
2019-04-23T08:55:08.381Z,0.00
2019-04-23T08:56:29.114Z,35296.00
2019-04-23T08:57:08.719Z,6364.00
2019-04-23T08:58:11.785Z,30272.00
2019-04-23T09:00:02.747Z,44192.00
2019-04-23T09:00:10.772Z,31424.00
2019-04-23T09:02:34.124Z,52256.00
2019-04-23T09:03:10.883Z,7640.00
2019-04-23T09:04:08.319Z,11788.00
2019-04-23T09:05:11.381Z,11844.00
2019-04-23T09:09:12.902Z,19232.00
2019-04-23T09:10:11.457Z,11920.00
2019-04-23T09:11:20.050Z,17836.00
2019-04-23T09:12:14.761Z,17492.00
2019-04-23T09:13:36.778Z,7760.00
2019-04-23T09:14:00.885Z,14988.00
2019-04-23T09:15:07.765Z,13084.00
2019-04-23T09:16:22.220Z,15916.00
2019-04-23T09:17:13.293Z,15968.00
2019-04-23T09:18:09.789Z,9448.00
2019-04-23T09:21:12.743Z,13156.00
2019-04-23T09:22:14.626Z,18716.00
2019-04-23T09:23:10.057Z,20704.00
2019-04-23T09:24:05.245Z,16672.00
2019-04-23T09:25:11.630Z,44160.00
2019-04-23T09:26:02.478Z,33632.00
2019-04-23T09:27:16.435Z,33184.00
2019-04-23T09:28:09.483Z,25696.00
2019-04-23T09:29:04.490Z,40768.00
2019-04-23T09:30:13.219Z,11488.00
2019-04-23T09:31:11.662Z,10596.00
2019-04-23T09:33:06.145Z,4532.00
2019-04-23T09:34:07.774Z,20608.00
2019-04-23T09:35:14.402Z,10316.00
2019-04-23T09:36:06.813Z,9128.00
2019-04-23T09:37:10.386Z,9088.00
2019-04-23T09:38:09.763Z,10492.00
2019-04-23T09:39:15.366Z,9956.00
2019-04-23T09:40:18.454Z,23904.00
2019-04-23T09:41:18.166Z,8564.00
2019-04-23T09:42:09.012Z,0.00
2019-04-23T09:43:12.217Z,27904.00
2019-04-23T09:45:03.866Z,15136.00
2019-04-23T09:46:15.150Z,12320.00
2019-04-23T09:50:11.147Z,10800.00
2019-04-23T09:51:07.845Z,14008.00
2019-04-23T09:54:12.838Z,12872.00
2019-04-23T09:55:15.511Z,9700.00
2019-04-23T09:56:06.772Z,32576.00
2019-04-23T09:57:03.855Z,8840.00
2019-04-23T09:58:08.198Z,7380.00
2019-04-23T09:59:17.610Z,53696.00
2019-04-23T10:00:10.599Z,40672.00
2019-04-23T10:00:59.044Z,62560.00
2019-04-23T10:01:59.506Z,17472.00
2019-04-23T10:02:53.369Z,14772.00
2019-04-23T10:03:53.339Z,36960.00
2019-04-23T10:04:58.628Z,25824.00
2019-04-23T10:05:51.014Z,20100.00
2019-04-23T10:06:55.311Z,14236.00
2019-04-23T10:07:49.459Z,10556.00
2019-04-23T10:08:47.451Z,9156.00
2019-04-23T10:09:40.671Z,9440.00
2019-04-23T10:10:40.726Z,13360.00
2019-04-23T10:11:40.826Z,8348.00
2019-04-23T10:12:40.000Z,7060.00
2019-04-23T10:13:40.475Z,8932.00
2019-04-23T10:14:51.255Z,10020.00
2019-04-23T10:15:42.969Z,9192.00
2019-04-23T10:16:41.304Z,8096.00
2019-04-23T10:17:40.304Z,9304.00
2019-04-23T10:18:39.389Z,0.00
2019-04-23T10:19:40.629Z,11264.00
2019-04-23T10:20:40.425Z,7688.00
2019-04-23T10:21:39.496Z,14708.00
2019-04-23T10:22:39.569Z,20192.00
2019-04-23T10:23:39.150Z,0.00
2019-04-23T10:24:39.308Z,36416.00
2019-04-23T10:25:40.323Z,29440.00
2019-04-23T10:26:39.934Z,44352.00
2019-04-23T10:27:39.280Z,2676.00
2019-04-23T10:28:40.231Z,14372.00
2019-04-23T10:29:39.062Z,14304.00
2019-04-23T10:30:40.647Z,10860.00
2019-04-23T10:31:40.000Z,40032.00
2019-04-23T10:32:40.048Z,36032.00
2019-04-23T10:33:39.942Z,19232.00
2019-04-23T10:34:58.067Z,56224.00
2019-04-23T10:35:50.782Z,14528.00
2019-04-23T10:36:40.661Z,30304.00
2019-04-23T10:37:46.702Z,35840.00
2019-04-23T10:38:41.602Z,7524.00
2019-04-23T10:39:43.513Z,18528.00
2019-04-23T10:40:43.982Z,11916.00
2019-04-23T10:41:42.597Z,40896.00
2019-04-23T10:42:43.238Z,26304.00
2019-04-23T10:43:42.530Z,12468.00
2019-04-23T10:44:40.760Z,11000.00
2019-04-23T10:45:53.867Z,12760.00
2019-04-23T10:47:08.171Z,28352.00
2019-04-23T10:48:12.386Z,13644.00
2019-04-23T10:49:28.155Z,23520.00
2019-04-23T10:50:06.737Z,50880.00
2019-04-23T10:51:04.576Z,41824.00
2019-04-23T10:53:20.152Z,0.00
2019-04-23T10:54:23.438Z,52768.00
2019-04-23T10:55:06.606Z,32672.00
2019-04-23T10:56:10.973Z,13492.00
2019-04-23T10:57:07.380Z,14584.00
2019-04-23T10:58:08.364Z,64800.00
2019-04-23T10:59:10.390Z,28832.00
2019-04-23T10:59:58.620Z,47872.00
2019-04-23T11:01:23.358Z,96064.00
2019-04-23T11:02:25.426Z,29408.00
2019-04-23T11:03:26.824Z,85600.00
2019-04-23T11:04:27.752Z,93984.00
2019-04-23T11:05:29.175Z,93600.00
2019-04-23T11:07:25.246Z,93984.00
2019-04-23T11:08:02.185Z,96448.00
2019-04-23T11:09:22.513Z,97536.00
2019-04-23T11:10:13.114Z,95296.00
2019-04-23T11:11:09.374Z,98080.00
2019-04-23T11:12:14.379Z,94752.00
2019-04-23T11:13:10.674Z,60160.00
2019-04-23T11:14:12.205Z,88224.00
2019-04-23T11:15:18.338Z,111776.00
2019-04-23T11:17:03.822Z,94624.00
2019-04-23T11:18:01.017Z,89248.00
2019-04-23T11:19:20.437Z,85024.00
2019-04-23T11:20:14.843Z,54976.00
2019-04-23T11:21:13.698Z,89024.00
2019-04-23T11:22:34.420Z,88736.00
2019-04-23T11:23:00.529Z,87392.00
2019-04-23T11:24:27.740Z,86048.00
2019-04-23T11:25:22.459Z,84992.00
2019-04-23T11:27:18.763Z,89632.00
2019-04-23T11:28:13.634Z,54976.00
2019-04-23T11:29:16.345Z,90880.00
2019-04-23T11:30:23.025Z,87008.00
2019-04-23T11:31:20.050Z,87104.00
2019-04-23T11:32:30.641Z,87840.00
2019-04-23T11:33:25.154Z,90848.00
2019-04-23T11:36:39.787Z,88704.00
2019-04-23T11:37:12.587Z,94048.00
2019-04-23T11:38:35.552Z,91008.00
2019-04-23T11:39:23.182Z,17708.00
2019-04-23T11:40:11.126Z,90624.00
2019-04-23T11:41:09.143Z,90784.00
2019-04-23T11:42:14.591Z,98752.00
2019-04-23T11:44:13.225Z,94272.00
2019-04-23T11:45:14.454Z,85728.00
2019-04-23T11:46:26.097Z,79008.00
2019-04-23T11:47:23.211Z,80192.00
2019-04-23T11:48:33.020Z,87136.00
2019-04-23T11:49:29.272Z,88000.00
2019-04-23T11:50:24.358Z,30656.00
2019-04-23T11:51:41.109Z,81888.00
2019-04-23T11:52:29.079Z,98528.00
2019-04-23T11:53:18.426Z,99456.00
2019-04-23T11:54:10.898Z,101472.00
2019-04-23T11:55:21.470Z,100160.00
2019-04-23T11:56:15.493Z,99456.00
2019-04-23T11:59:15.819Z,23904.00
2019-04-23T12:01:36.148Z,85792.00
2019-04-23T12:02:06.353Z,73760.00
2019-04-23T12:02:59.238Z,83904.00
2019-04-23T12:04:23.017Z,80864.00
2019-04-23T12:05:20.672Z,115264.00
2019-04-23T12:06:15.594Z,86656.00
2019-04-23T12:07:10.990Z,88896.00
2019-04-23T12:08:18.836Z,92512.00
2019-04-23T12:09:07.439Z,67936.00
2019-04-23T12:10:19.853Z,40000.00
2019-04-23T12:11:35.496Z,87008.00
2019-04-23T12:12:11.169Z,87168.00
2019-04-23T12:13:12.276Z,22272.00
2019-04-23T12:14:22.051Z,26976.00
2019-04-23T12:15:13.539Z,50624.00
2019-04-23T12:16:10.348Z,43840.00
2019-04-23T12:17:15.255Z,35104.00
2019-04-23T12:18:10.131Z,37984.00
2019-04-23T12:19:33.342Z,91936.00
2019-04-23T12:21:04.537Z,87904.00
2019-04-23T12:24:17.174Z,87616.00
2019-04-23T12:26:11.654Z,78208.00
2019-04-23T12:28:08.514Z,84128.00
2019-04-23T12:29:13.969Z,86080.00
2019-04-23T12:30:25.325Z,41792.00
2019-04-23T12:31:11.891Z,81632.00
2019-04-23T12:32:26.866Z,84896.00
2019-04-23T12:33:12.972Z,78144.00
2019-04-23T12:34:06.943Z,53216.00
2019-04-23T12:36:05.374Z,20416.00
2019-04-23T12:37:10.076Z,23488.00
2019-04-23T12:38:10.360Z,38528.00
2019-04-23T12:39:17.003Z,82752.00
2019-04-23T12:40:15.353Z,62528.00
2019-04-23T12:41:10.511Z,74400.00
2019-04-23T12:42:26.440Z,88768.00
2019-04-23T12:43:12.426Z,43264.00
2019-04-23T12:44:07.884Z,39168.00
2019-04-23T12:45:17.259Z,87872.00
2019-04-23T12:46:03.635Z,92832.00
2019-04-23T12:47:21.064Z,91488.00
2019-04-23T12:49:28.259Z,29216.00
2019-04-23T12:51:01.179Z,20896.00
2019-04-23T12:52:12.886Z,72480.00
2019-04-23T12:53:12.292Z,22624.00
2019-04-23T12:54:17.447Z,48992.00
2019-04-23T12:55:15.038Z,73920.00
2019-04-23T12:56:08.776Z,52928.00
2019-04-23T12:57:14.982Z,39488.00
2019-04-23T12:59:12.451Z,14264.00
2019-04-23T13:00:05.211Z,13624.00
2019-04-23T13:01:05.351Z,14320.00
2019-04-23T13:03:02.694Z,23904.00
2019-04-23T13:04:01.381Z,40672.00
2019-04-23T13:05:27.014Z,20480.00
2019-04-23T13:06:00.810Z,17888.00
2019-04-23T13:07:11.366Z,13180.00
2019-04-23T13:08:08.656Z,11328.00
2019-04-23T13:09:19.510Z,12548.00
2019-04-23T13:10:23.541Z,12352.00
2019-04-23T13:11:10.149Z,14012.00
2019-04-23T13:12:10.498Z,26528.00
2019-04-23T13:14:13.147Z,24800.00
2019-04-23T13:15:11.629Z,22816.00
2019-04-23T13:16:12.956Z,22944.00
2019-04-23T13:17:12.549Z,23904.00
2019-04-23T13:18:04.332Z,24192.00
2019-04-23T13:19:16.746Z,24928.00
2019-04-23T13:20:07.586Z,18688.00
2019-04-23T13:21:15.834Z,14960.00
2019-04-23T13:22:13.554Z,12668.00
2019-04-23T13:24:04.201Z,11016.00
2019-04-23T13:25:09.578Z,11312.00
2019-04-23T13:27:15.834Z,12920.00
2019-04-23T13:28:06.570Z,15204.00
2019-04-23T13:29:13.869Z,26208.00
2019-04-23T13:30:07.634Z,26816.00
2019-04-23T13:31:06.458Z,19392.00
2019-04-23T13:32:05.456Z,21856.00
2019-04-23T13:33:08.325Z,24160.00
2019-04-23T13:34:07.115Z,25856.00
2019-04-23T13:35:18.602Z,57088.00
2019-04-23T13:36:08.431Z,31040.00
2019-04-23T13:37:14.245Z,28032.00
2019-04-23T13:38:10.396Z,25728.00
2019-04-23T13:39:02.390Z,28000.00
2019-04-23T13:40:09.223Z,23200.00
2019-04-23T13:41:13.387Z,23712.00
2019-04-23T13:42:19.795Z,26592.00
2019-04-23T13:43:14.900Z,27104.00
2019-04-23T13:44:06.088Z,41056.00
2019-04-23T13:46:17.282Z,24672.00
2019-04-23T13:47:15.669Z,23968.00
2019-04-23T13:48:06.748Z,20640.00
2019-04-23T13:49:02.815Z,22944.00
2019-04-23T13:50:18.048Z,22656.00
2019-04-23T13:51:08.858Z,23648.00
2019-04-23T13:52:38.030Z,23744.00
2019-04-23T13:54:16.985Z,21088.00
2019-04-23T13:56:18.174Z,21536.00
2019-04-23T13:57:32.610Z,20352.00
2019-04-23T13:58:23.652Z,20000.00
2019-04-23T14:00:14.202Z,17024.00
2019-04-23T14:01:24.151Z,17856.00
2019-04-23T14:02:17.039Z,18688.00
2019-04-23T14:03:03.212Z,19392.00
2019-04-23T14:04:14.209Z,17344.00
2019-04-23T14:05:06.348Z,17152.00
2019-04-23T14:07:05.853Z,19712.00
2019-04-23T14:08:14.227Z,17472.00
2019-04-23T14:10:13.558Z,17088.00
2019-04-23T14:11:19.516Z,20224.00
2019-04-23T14:12:08.298Z,19648.00
2019-04-23T14:14:08.425Z,23392.00
2019-04-23T14:16:13.817Z,15568.00
2019-04-23T14:17:18.151Z,14804.00
2019-04-23T14:20:09.980Z,12720.00
2019-04-23T14:21:17.209Z,11896.00
2019-04-23T14:22:30.275Z,10500.00
2019-04-23T14:23:17.868Z,9028.00
2019-04-23T14:24:20.891Z,8236.00